sensor_id;sensor_type;location;lat;lon;timestamp;temperature;humidity
34147;DHT22;20423;49.448;9.056;2022-11-20T00:02:24;0.60;99.90
34147;DHT22;20423;49.448;9.056;2022-11-20T00:04:50;0.60;99.90
34147;DHT22;20423;49.448;9.056;2022-11-20T00:07:41;0.60;99.90
34147;DHT22;20423;49.448;9.056;2022-11-20T00:10:07;0.60;99.90
34147;DHT22;20423;49.448;9.056;2022-11-20T00:12:32;0.60;99.90
34147;DHT22;20423;49.448;9.056;2022-11-20T00:14:58;0.60;99.90
34147;DHT22;20423;49.448;9.056;2022-11-20T00:17:24;0.70;99.90
34147;DHT22;20423;49.448;9.056;2022-11-20T00:19:59;0.70;99.90
34147;DHT22;20423;49.448;9.056;2022-11-20T00:22:31;0.70;99.90
34147;DHT22;20423;49.448;9.056;2022-11-20T00:24:56;0.70;99.90
34147;DHT22;20423;49.448;9.056;2022-11-20T00:27:23;0.70;99.90
34147;DHT22;20423;49.448;9.056;2022-11-20T00:29:49;0.70;99.90
34147;DHT22;20423;49.448;9.056;2022-11-20T00:32:14;0.60;99.90
34147;DHT22;20423;49.448;9.056;2022-11-20T00:34:40;0.70;99.90
34147;DHT22;20423;49.448;9.056;2022-11-20T00:37:05;0.70;99.90
34147;DHT22;20423;49.448;9.056;2022-11-20T00:39:31;0.70;99.90
34147;DHT22;20423;49.448;9.056;2022-11-20T00:41:57;0.70;99.90
34147;DHT22;20423;49.448;9.056;2022-11-20T00:47:35;0.90;99.90
34147;DHT22;20423;49.448;9.056;2022-11-20T00:53:24;0.90;99.90
34147;DHT22;20423;49.448;9.056;2022-11-20T00:56:01;0.90;99.90
34147;DHT22;20423;49.448;9.056;2022-11-20T00:58:36;0.90;99.90
34147;DHT22;20423;49.448;9.056;2022-11-20T01:01:04;1.00;99.90
34147;DHT22;20423;49.448;9.056;2022-11-20T01:03:39;0.90;99.90
34147;DHT22;20423;49.448;9.056;2022-11-20T01:09:11;1.00;99.90
34147;DHT22;20423;49.448;9.056;2022-11-20T01:11:40;1.00;99.90
34147;DHT22;20423;49.448;9.056;2022-11-20T01:14:09;1.00;99.90
34147;DHT22;20423;49.448;9.056;2022-11-20T01:16:40;1.00;99.90
34147;DHT22;20423;49.448;9.056;2022-11-20T01:19:10;0.90;99.90
34147;DHT22;20423;49.448;9.056;2022-11-20T01:21:39;0.90;99.90
34147;DHT22;20423;49.448;9.056;2022-11-20T01:24:07;0.90;99.90
34147;DHT22;20423;49.448;9.056;2022-11-20T01:26:35;0.90;99.90
34147;DHT22;20423;49.448;9.056;2022-11-20T01:29:03;1.00;99.90
34147;DHT22;20423;49.448;9.056;2022-11-20T01:31:31;1.00;99.90
34147;DHT22;20423;49.448;9.056;2022-11-20T01:34:00;1.00;99.90
34147;DHT22;20423;49.448;9.056;2022-11-20T01:36:28;0.90;99.90
34147;DHT22;20423;49.448;9.056;2022-11-20T01:38:56;1.00;99.90
34147;DHT22;20423;49.448;9.056;2022-11-20T01:41:23;1.00;99.90
34147;DHT22;20423;49.448;9.056;2022-11-20T01:44:11;1.00;99.90
34147;DHT22;20423;49.448;9.056;2022-11-20T01:46:38;1.00;99.90
34147;DHT22;20423;49.448;9.056;2022-11-20T01:51:48;0.90;99.90
34147;DHT22;20423;49.448;9.056;2022-11-20T01:54:33;1.00;99.90
34147;DHT22;20423;49.448;9.056;2022-11-20T01:57:02;1.10;99.90
34147;DHT22;20423;49.448;9.056;2022-11-20T01:59:29;1.10;99.90
34147;DHT22;20423;49.448;9.056;2022-11-20T02:01:56;1.10;99.90
34147;DHT22;20423;49.448;9.056;2022-11-20T02:04:23;1.10;99.90
34147;DHT22;20423;49.448;9.056;2022-11-20T02:07:08;1.20;99.90
34147;DHT22;20423;49.448;9.056;2022-11-20T02:09:33;1.10;99.90
34147;DHT22;20423;49.448;9.056;2022-11-20T02:12:33;1.10;99.90
34147;DHT22;20423;49.448;9.056;2022-11-20T02:15:17;1.00;99.90
34147;DHT22;20423;49.448;9.056;2022-11-20T02:17:43;1.10;99.90
34147;DHT22;20423;49.448;9.056;2022-11-20T02:20:09;1.10;99.90
34147;DHT22;20423;49.448;9.056;2022-11-20T02:22:42;1.10;99.90
34147;DHT22;20423;49.448;9.056;2022-11-20T02:25:11;1.20;99.90
34147;DHT22;20423;49.448;9.056;2022-11-20T02:27:37;1.20;99.90
34147;DHT22;20423;49.448;9.056;2022-11-20T02:30:04;1.20;99.90
34147;DHT22;20423;49.448;9.056;2022-11-20T02:32:35;1.20;99.90
34147;DHT22;20423;49.448;9.056;2022-11-20T02:37:51;1.40;99.90
34147;DHT22;20423;49.448;9.056;2022-11-20T02:40:18;1.40;99.90
34147;DHT22;20423;49.448;9.056;2022-11-20T02:42:44;1.40;99.90
34147;DHT22;20423;49.448;9.056;2022-11-20T02:45:10;1.40;99.90
34147;DHT22;20423;49.448;9.056;2022-11-20T02:47:36;1.50;99.90
34147;DHT22;20423;49.448;9.056;2022-11-20T02:50:04;1.60;99.90
34147;DHT22;20423;49.448;9.056;2022-11-20T02:52:30;1.60;99.90
34147;DHT22;20423;49.448;9.056;2022-11-20T02:54:56;1.70;99.90
34147;DHT22;20423;49.448;9.056;2022-11-20T02:57:21;1.70;99.90
34147;DHT22;20423;49.448;9.056;2022-11-20T03:00:16;1.70;99.90
34147;DHT22;20423;49.448;9.056;2022-11-20T03:02:42;1.60;99.90
34147;DHT22;20423;49.448;9.056;2022-11-20T03:05:07;1.70;99.90
34147;DHT22;20423;49.448;9.056;2022-11-20T03:07:33;1.70;99.90
34147;DHT22;20423;49.448;9.056;2022-11-20T03:09:59;1.60;99.90
34147;DHT22;20423;49.448;9.056;2022-11-20T03:12:25;1.70;99.90
34147;DHT22;20423;49.448;9.056;2022-11-20T03:14:50;1.60;99.90
34147;DHT22;20423;49.448;9.056;2022-11-20T03:17:16;1.60;99.90
34147;DHT22;20423;49.448;9.056;2022-11-20T03:19:42;1.70;99.90
34147;DHT22;20423;49.448;9.056;2022-11-20T03:22:41;1.70;99.90
34147;DHT22;20423;49.448;9.056;2022-11-20T03:25:07;1.80;99.90
34147;DHT22;20423;49.448;9.056;2022-11-20T03:27:34;1.90;99.90
34147;DHT22;20423;49.448;9.056;2022-11-20T03:30:00;1.80;99.90
34147;DHT22;20423;49.448;9.056;2022-11-20T03:32:25;1.90;99.90
34147;DHT22;20423;49.448;9.056;2022-11-20T03:34:51;1.90;99.90
34147;DHT22;20423;49.448;9.056;2022-11-20T03:37:17;1.90;99.90
34147;DHT22;20423;49.448;9.056;2022-11-20T03:39:42;1.90;99.90
34147;DHT22;20423;49.448;9.056;2022-11-20T03:42:08;2.00;99.90
34147;DHT22;20423;49.448;9.056;2022-11-20T03:44:54;2.00;99.90
34147;DHT22;20423;49.448;9.056;2022-11-20T03:47:20;2.10;99.90
34147;DHT22;20423;49.448;9.056;2022-11-20T03:49:45;2.10;99.90
34147;DHT22;20423;49.448;9.056;2022-11-20T03:52:11;2.20;99.90
34147;DHT22;20423;49.448;9.056;2022-11-20T03:54:37;2.30;99.90
34147;DHT22;20423;49.448;9.056;2022-11-20T03:57:02;2.40;99.90
34147;DHT22;20423;49.448;9.056;2022-11-20T03:59:28;2.50;99.90
34147;DHT22;20423;49.448;9.056;2022-11-20T04:01:53;2.60;99.90
34147;DHT22;20423;49.448;9.056;2022-11-20T04:04:19;2.70;99.90
34147;DHT22;20423;49.448;9.056;2022-11-20T04:06:54;2.70;99.90
34147;DHT22;20423;49.448;9.056;2022-11-20T04:09:19;2.80;99.90
34147;DHT22;20423;49.448;9.056;2022-11-20T04:11:48;2.80;99.90
34147;DHT22;20423;49.448;9.056;2022-11-20T04:14:15;2.80;99.90
34147;DHT22;20423;49.448;9.056;2022-11-20T04:16:41;2.90;99.90
34147;DHT22;20423;49.448;9.056;2022-11-20T04:19:11;2.90;99.90
34147;DHT22;20423;49.448;9.056;2022-11-20T04:21:37;2.90;99.90
34147;DHT22;20423;49.448;9.056;2022-11-20T04:24:03;2.90;99.90
34147;DHT22;20423;49.448;9.056;2022-11-20T04:26:30;2.90;99.90
34147;DHT22;20423;49.448;9.056;2022-11-20T04:28:56;3.00;99.90
34147;DHT22;20423;49.448;9.056;2022-11-20T04:35:16;3.00;99.90
34147;DHT22;20423;49.448;9.056;2022-11-20T04:37:42;3.00;99.90
34147;DHT22;20423;49.448;9.056;2022-11-20T04:40:08;3.00;99.90
34147;DHT22;20423;49.448;9.056;2022-11-20T04:42:33;3.00;99.90
34147;DHT22;20423;49.448;9.056;2022-11-20T04:44:59;3.00;99.90
34147;DHT22;20423;49.448;9.056;2022-11-20T04:47:25;3.00;99.90
34147;DHT22;20423;49.448;9.056;2022-11-20T04:49:50;3.00;99.90
34147;DHT22;20423;49.448;9.056;2022-11-20T04:52:16;3.00;99.90
34147;DHT22;20423;49.448;9.056;2022-11-20T04:54:42;3.00;99.90
34147;DHT22;20423;49.448;9.056;2022-11-20T04:57:07;3.00;99.90
34147;DHT22;20423;49.448;9.056;2022-11-20T04:59:33;3.00;99.90
34147;DHT22;20423;49.448;9.056;2022-11-20T05:01:58;3.00;99.90
34147;DHT22;20423;49.448;9.056;2022-11-20T05:04:24;3.00;99.90
34147;DHT22;20423;49.448;9.056;2022-11-20T05:06:50;3.00;99.90
34147;DHT22;20423;49.448;9.056;2022-11-20T05:09:16;2.90;99.90
34147;DHT22;20423;49.448;9.056;2022-11-20T05:11:41;3.00;99.90
34147;DHT22;20423;49.448;9.056;2022-11-20T05:14:07;3.00;99.90
34147;DHT22;20423;49.448;9.056;2022-11-20T05:16:34;2.90;99.90
34147;DHT22;20423;49.448;9.056;2022-11-20T05:19:37;2.90;99.90
34147;DHT22;20423;49.448;9.056;2022-11-20T05:22:04;3.00;99.90
34147;DHT22;20423;49.448;9.056;2022-11-20T05:24:30;2.90;99.90
34147;DHT22;20423;49.448;9.056;2022-11-20T05:26:56;3.00;99.90
34147;DHT22;20423;49.448;9.056;2022-11-20T05:29:21;3.00;99.90
34147;DHT22;20423;49.448;9.056;2022-11-20T05:31:47;3.00;99.90
34147;DHT22;20423;49.448;9.056;2022-11-20T05:34:13;3.00;99.90
34147;DHT22;20423;49.448;9.056;2022-11-20T05:36:38;3.00;99.90
34147;DHT22;20423;49.448;9.056;2022-11-20T05:39:04;3.00;99.90
34147;DHT22;20423;49.448;9.056;2022-11-20T05:41:30;3.10;99.90
34147;DHT22;20423;49.448;9.056;2022-11-20T05:43:56;3.00;99.90
34147;DHT22;20423;49.448;9.056;2022-11-20T05:46:22;3.00;99.90
34147;DHT22;20423;49.448;9.056;2022-11-20T05:48:48;3.00;99.90
34147;DHT22;20423;49.448;9.056;2022-11-20T05:51:16;3.10;99.90
34147;DHT22;20423;49.448;9.056;2022-11-20T05:53:42;3.10;99.90
34147;DHT22;20423;49.448;9.056;2022-11-20T05:56:39;3.10;99.90
34147;DHT22;20423;49.448;9.056;2022-11-20T05:59:04;3.10;99.90
34147;DHT22;20423;49.448;9.056;2022-11-20T06:01:30;3.10;99.90
34147;DHT22;20423;49.448;9.056;2022-11-20T06:03:56;3.10;99.90
34147;DHT22;20423;49.448;9.056;2022-11-20T06:06:22;3.20;99.90
34147;DHT22;20423;49.448;9.056;2022-11-20T06:08:48;3.20;99.90
34147;DHT22;20423;49.448;9.056;2022-11-20T06:11:14;3.30;99.90
34147;DHT22;20423;49.448;9.056;2022-11-20T06:13:42;3.30;99.90
34147;DHT22;20423;49.448;9.056;2022-11-20T06:16:08;3.30;99.90
34147;DHT22;20423;49.448;9.056;2022-11-20T06:18:34;3.40;99.90
34147;DHT22;20423;49.448;9.056;2022-11-20T06:23:28;3.40;99.90
34147;DHT22;20423;49.448;9.056;2022-11-20T06:25:54;3.40;99.90
34147;DHT22;20423;49.448;9.056;2022-11-20T06:28:20;3.40;99.90
34147;DHT22;20423;49.448;9.056;2022-11-20T06:30:46;3.50;99.90
34147;DHT22;20423;49.448;9.056;2022-11-20T06:33:11;3.50;99.90
34147;DHT22;20423;49.448;9.056;2022-11-20T06:35:37;3.50;99.90
34147;DHT22;20423;49.448;9.056;2022-11-20T06:38:02;3.50;99.90
34147;DHT22;20423;49.448;9.056;2022-11-20T06:40:28;3.50;99.90
34147;DHT22;20423;49.448;9.056;2022-11-20T06:42:54;3.50;99.90
34147;DHT22;20423;49.448;9.056;2022-11-20T06:45:21;3.60;99.90
34147;DHT22;20423;49.448;9.056;2022-11-20T06:47:46;3.60;99.90
34147;DHT22;20423;49.448;9.056;2022-11-20T06:50:13;3.60;99.90
34147;DHT22;20423;49.448;9.056;2022-11-20T06:52:38;3.70;99.90
34147;DHT22;20423;49.448;9.056;2022-11-20T06:55:16;3.70;99.90
34147;DHT22;20423;49.448;9.056;2022-11-20T06:57:42;3.70;99.90
34147;DHT22;20423;49.448;9.056;2022-11-20T07:00:08;3.70;99.90
34147;DHT22;20423;49.448;9.056;2022-11-20T07:02:34;3.80;99.90
34147;DHT22;20423;49.448;9.056;2022-11-20T07:04:59;3.70;99.90
34147;DHT22;20423;49.448;9.056;2022-11-20T07:07:25;3.80;99.90
34147;DHT22;20423;49.448;9.056;2022-11-20T07:09:50;3.80;99.90
34147;DHT22;20423;49.448;9.056;2022-11-20T07:12:16;3.80;99.90
34147;DHT22;20423;49.448;9.056;2022-11-20T07:14:42;3.80;99.90
34147;DHT22;20423;49.448;9.056;2022-11-20T07:17:07;3.80;99.90
34147;DHT22;20423;49.448;9.056;2022-11-20T07:19:33;3.80;99.90
34147;DHT22;20423;49.448;9.056;2022-11-20T07:21:59;3.90;99.90
34147;DHT22;20423;49.448;9.056;2022-11-20T07:24:24;3.90;99.90
34147;DHT22;20423;49.448;9.056;2022-11-20T07:27:18;3.90;99.90
34147;DHT22;20423;49.448;9.056;2022-11-20T07:29:44;3.90;99.90
34147;DHT22;20423;49.448;9.056;2022-11-20T07:32:09;3.90;99.90
34147;DHT22;20423;49.448;9.056;2022-11-20T07:34:35;3.90;99.90
34147;DHT22;20423;49.448;9.056;2022-11-20T07:37:01;3.90;99.90
34147;DHT22;20423;49.448;9.056;2022-11-20T07:39:26;3.90;99.90
34147;DHT22;20423;49.448;9.056;2022-11-20T07:41:52;3.90;99.90
34147;DHT22;20423;49.448;9.056;2022-11-20T07:44:18;4.00;99.90
34147;DHT22;20423;49.448;9.056;2022-11-20T07:46:43;4.00;99.90
34147;DHT22;20423;49.448;9.056;2022-11-20T07:49:09;4.10;99.90
34147;DHT22;20423;49.448;9.056;2022-11-20T07:51:35;4.10;99.90
34147;DHT22;20423;49.448;9.056;2022-11-20T07:54:00;4.10;99.90
34147;DHT22;20423;49.448;9.056;2022-11-20T07:56:26;4.10;99.90
34147;DHT22;20423;49.448;9.056;2022-11-20T07:58:52;4.10;99.90
34147;DHT22;20423;49.448;9.056;2022-11-20T08:01:17;4.10;99.90
34147;DHT22;20423;49.448;9.056;2022-11-20T08:04:05;4.20;99.90
34147;DHT22;20423;49.448;9.056;2022-11-20T08:06:31;4.10;99.90
34147;DHT22;20423;49.448;9.056;2022-11-20T08:08:57;4.20;99.90
34147;DHT22;20423;49.448;9.056;2022-11-20T08:11:23;4.20;99.90
34147;DHT22;20423;49.448;9.056;2022-11-20T08:14:07;4.20;99.90
34147;DHT22;20423;49.448;9.056;2022-11-20T08:16:49;4.20;99.90
34147;DHT22;20423;49.448;9.056;2022-11-20T08:19:17;4.30;99.90
34147;DHT22;20423;49.448;9.056;2022-11-20T08:21:43;4.30;99.90
34147;DHT22;20423;49.448;9.056;2022-11-20T08:24:10;4.30;99.90
34147;DHT22;20423;49.448;9.056;2022-11-20T08:26:37;4.30;99.90
34147;DHT22;20423;49.448;9.056;2022-11-20T08:29:03;4.40;99.90
34147;DHT22;20423;49.448;9.056;2022-11-20T08:31:30;4.40;99.90
34147;DHT22;20423;49.448;9.056;2022-11-20T08:33:56;4.40;99.90
34147;DHT22;20423;49.448;9.056;2022-11-20T08:36:23;4.40;99.90
34147;DHT22;20423;49.448;9.056;2022-11-20T08:38:50;4.40;99.90
34147;DHT22;20423;49.448;9.056;2022-11-20T08:41:25;4.40;99.90
34147;DHT22;20423;49.448;9.056;2022-11-20T08:44:07;4.40;99.90
34147;DHT22;20423;49.448;9.056;2022-11-20T08:46:41;4.40;99.90
34147;DHT22;20423;49.448;9.056;2022-11-20T08:49:10;4.50;99.90
34147;DHT22;20423;49.448;9.056;2022-11-20T08:51:37;4.50;99.90
34147;DHT22;20423;49.448;9.056;2022-11-20T08:54:04;4.50;99.90
34147;DHT22;20423;49.448;9.056;2022-11-20T08:56:30;4.50;99.90
34147;DHT22;20423;49.448;9.056;2022-11-20T08:58:59;4.50;99.90
34147;DHT22;20423;49.448;9.056;2022-11-20T09:01:25;4.50;99.90
34147;DHT22;20423;49.448;9.056;2022-11-20T09:03:51;4.50;99.90
34147;DHT22;20423;49.448;9.056;2022-11-20T09:09:43;4.50;99.90
34147;DHT22;20423;49.448;9.056;2022-11-20T09:12:09;4.50;99.90
34147;DHT22;20423;49.448;9.056;2022-11-20T09:14:36;4.50;99.90
34147;DHT22;20423;49.448;9.056;2022-11-20T09:17:01;4.50;99.90
34147;DHT22;20423;49.448;9.056;2022-11-20T09:19:27;4.50;99.90
34147;DHT22;20423;49.448;9.056;2022-11-20T09:21:53;4.60;99.90
34147;DHT22;20423;49.448;9.056;2022-11-20T09:24:19;4.60;99.90
34147;DHT22;20423;49.448;9.056;2022-11-20T09:26:46;4.60;99.90
34147;DHT22;20423;49.448;9.056;2022-11-20T09:29:12;4.70;99.90
34147;DHT22;20423;49.448;9.056;2022-11-20T09:31:38;4.60;99.90
34147;DHT22;20423;49.448;9.056;2022-11-20T09:34:03;4.60;99.90
34147;DHT22;20423;49.448;9.056;2022-11-20T09:36:29;4.60;99.90
34147;DHT22;20423;49.448;9.056;2022-11-20T09:38:55;4.60;99.90
34147;DHT22;20423;49.448;9.056;2022-11-20T09:47:07;4.70;99.90
34147;DHT22;20423;49.448;9.056;2022-11-20T09:52:32;4.70;99.90
34147;DHT22;20423;49.448;9.056;2022-11-20T09:55:01;4.70;99.90
34147;DHT22;20423;49.448;9.056;2022-11-20T09:57:37;4.70;99.90
34147;DHT22;20423;49.448;9.056;2022-11-20T10:00:06;4.80;99.90
34147;DHT22;20423;49.448;9.056;2022-11-20T10:03:09;4.80;99.90
34147;DHT22;20423;49.448;9.056;2022-11-20T10:05:50;4.80;99.90
34147;DHT22;20423;49.448;9.056;2022-11-20T10:08:28;4.80;99.90
34147;DHT22;20423;49.448;9.056;2022-11-20T10:14:20;4.80;99.90
34147;DHT22;20423;49.448;9.056;2022-11-20T10:17:23;4.80;99.90
34147;DHT22;20423;49.448;9.056;2022-11-20T10:23:02;4.80;99.90
34147;DHT22;20423;49.448;9.056;2022-11-20T10:25:38;4.80;99.90
34147;DHT22;20423;49.448;9.056;2022-11-20T10:28:30;4.90;99.90
34147;DHT22;20423;49.448;9.056;2022-11-20T10:31:03;4.90;99.90
34147;DHT22;20423;49.448;9.056;2022-11-20T10:33:51;4.90;99.90
34147;DHT22;20423;49.448;9.056;2022-11-20T10:36:30;4.90;99.90
34147;DHT22;20423;49.448;9.056;2022-11-20T10:39:05;4.90;99.90
34147;DHT22;20423;49.448;9.056;2022-11-20T10:41:38;4.90;99.90
34147;DHT22;20423;49.448;9.056;2022-11-20T10:44:11;4.90;99.90
34147;DHT22;20423;49.448;9.056;2022-11-20T10:46:44;4.90;99.90
34147;DHT22;20423;49.448;9.056;2022-11-20T10:49:16;4.90;99.90
34147;DHT22;20423;49.448;9.056;2022-11-20T10:52:09;4.90;99.90
34147;DHT22;20423;49.448;9.056;2022-11-20T10:54:39;5.00;99.90
34147;DHT22;20423;49.448;9.056;2022-11-20T10:59:49;5.00;99.90
34147;DHT22;20423;49.448;9.056;2022-11-20T11:02:22;5.00;99.90
34147;DHT22;20423;49.448;9.056;2022-11-20T11:04:50;5.00;99.90
34147;DHT22;20423;49.448;9.056;2022-11-20T11:09:52;5.10;99.90
34147;DHT22;20423;49.448;9.056;2022-11-20T11:12:19;5.10;99.90
34147;DHT22;20423;49.448;9.056;2022-11-20T11:14:51;5.00;99.90
34147;DHT22;20423;49.448;9.056;2022-11-20T11:17:21;4.90;99.90
34147;DHT22;20423;49.448;9.056;2022-11-20T11:22:30;4.70;99.90
34147;DHT22;20423;49.448;9.056;2022-11-20T11:24:56;4.80;99.90
34147;DHT22;20423;49.448;9.056;2022-11-20T11:27:22;4.80;99.90
34147;DHT22;20423;49.448;9.056;2022-11-20T11:29:48;4.80;99.90
34147;DHT22;20423;49.448;9.056;2022-11-20T11:32:20;4.80;99.90
34147;DHT22;20423;49.448;9.056;2022-11-20T11:35:05;4.80;99.90
34147;DHT22;20423;49.448;9.056;2022-11-20T11:37:36;4.80;99.90
34147;DHT22;20423;49.448;9.056;2022-11-20T11:43:59;4.90;99.90
34147;DHT22;20423;49.448;9.056;2022-11-20T11:46:52;4.80;99.90
34147;DHT22;20423;49.448;9.056;2022-11-20T11:49:19;4.80;99.90
34147;DHT22;20423;49.448;9.056;2022-11-20T11:56:53;4.70;99.90
34147;DHT22;20423;49.448;9.056;2022-11-20T11:59:37;4.60;99.90
34147;DHT22;20423;49.448;9.056;2022-11-20T12:04:57;4.70;99.90
34147;DHT22;20423;49.448;9.056;2022-11-20T12:10:07;4.50;99.90
34147;DHT22;20423;49.448;9.056;2022-11-20T12:12:42;4.50;99.90
34147;DHT22;20423;49.448;9.056;2022-11-20T12:15:11;4.50;99.90
34147;DHT22;20423;49.448;9.056;2022-11-20T12:17:38;4.50;99.90
34147;DHT22;20423;49.448;9.056;2022-11-20T12:20:13;4.60;99.90
34147;DHT22;20423;49.448;9.056;2022-11-20T12:34:33;5.40;99.90
34147;DHT22;20423;49.448;9.056;2022-11-20T12:37:33;5.90;99.90
34147;DHT22;20423;49.448;9.056;2022-11-20T12:43:19;5.80;99.90
34147;DHT22;20423;49.448;9.056;2022-11-20T12:48:37;5.60;99.90
34147;DHT22;20423;49.448;9.056;2022-11-20T12:54:05;5.60;99.90
34147;DHT22;20423;49.448;9.056;2022-11-20T12:56:46;5.60;99.90
34147;DHT22;20423;49.448;9.056;2022-11-20T13:07:24;5.50;99.90
34147;DHT22;20423;49.448;9.056;2022-11-20T13:09:51;5.50;99.90
34147;DHT22;20423;49.448;9.056;2022-11-20T13:18:00;5.50;99.90
34147;DHT22;20423;49.448;9.056;2022-11-20T13:26:46;5.50;99.90
34147;DHT22;20423;49.448;9.056;2022-11-20T13:29:17;5.40;99.90
34147;DHT22;20423;49.448;9.056;2022-11-20T13:31:47;5.50;99.90
34147;DHT22;20423;49.448;9.056;2022-11-20T13:34:26;5.50;99.90
34147;DHT22;20423;49.448;9.056;2022-11-20T13:36:57;5.40;99.90
34147;DHT22;20423;49.448;9.056;2022-11-20T13:39:28;5.20;99.90
34147;DHT22;20423;49.448;9.056;2022-11-20T13:41:58;5.30;99.90
34147;DHT22;20423;49.448;9.056;2022-11-20T13:44:47;5.20;99.90
34147;DHT22;20423;49.448;9.056;2022-11-20T13:47:26;5.30;99.90
34147;DHT22;20423;49.448;9.056;2022-11-20T13:49:54;5.30;99.90
34147;DHT22;20423;49.448;9.056;2022-11-20T13:52:59;5.30;99.90
34147;DHT22;20423;49.448;9.056;2022-11-20T13:56:04;5.40;99.90
34147;DHT22;20423;49.448;9.056;2022-11-20T14:01:23;5.50;99.90
34147;DHT22;20423;49.448;9.056;2022-11-20T14:03:49;5.60;99.90
34147;DHT22;20423;49.448;9.056;2022-11-20T14:06:28;5.60;99.90
34147;DHT22;20423;49.448;9.056;2022-11-20T14:08:55;5.70;99.90
34147;DHT22;20423;49.448;9.056;2022-11-20T14:11:23;5.80;99.90
34147;DHT22;20423;49.448;9.056;2022-11-20T14:14:18;5.90;99.90
34147;DHT22;20423;49.448;9.056;2022-11-20T14:16:45;5.90;99.90
34147;DHT22;20423;49.448;9.056;2022-11-20T14:21:47;5.80;99.90
34147;DHT22;20423;49.448;9.056;2022-11-20T14:24:13;5.70;99.90
34147;DHT22;20423;49.448;9.056;2022-11-20T14:26:44;5.60;99.90
34147;DHT22;20423;49.448;9.056;2022-11-20T14:29:17;5.50;99.90
34147;DHT22;20423;49.448;9.056;2022-11-20T14:31:44;5.30;99.90
34147;DHT22;20423;49.448;9.056;2022-11-20T14:34:31;5.20;99.90
34147;DHT22;20423;49.448;9.056;2022-11-20T14:37:03;5.20;99.90
34147;DHT22;20423;49.448;9.056;2022-11-20T14:39:32;5.20;99.90
34147;DHT22;20423;49.448;9.056;2022-11-20T14:41:59;5.20;99.90
34147;DHT22;20423;49.448;9.056;2022-11-20T14:44:31;5.20;99.90
34147;DHT22;20423;49.448;9.056;2022-11-20T14:47:00;5.10;99.90
34147;DHT22;20423;49.448;9.056;2022-11-20T14:49:29;5.00;99.90
34147;DHT22;20423;49.448;9.056;2022-11-20T14:52:19;4.90;99.90
34147;DHT22;20423;49.448;9.056;2022-11-20T14:54:47;4.70;99.90
34147;DHT22;20423;49.448;9.056;2022-11-20T14:59:49;4.40;99.90
34147;DHT22;20423;49.448;9.056;2022-11-20T15:02:16;4.30;99.90
34147;DHT22;20423;49.448;9.056;2022-11-20T15:04:49;4.20;99.90
34147;DHT22;20423;49.448;9.056;2022-11-20T15:07:33;4.10;99.90
34147;DHT22;20423;49.448;9.056;2022-11-20T15:10:04;4.00;99.90
34147;DHT22;20423;49.448;9.056;2022-11-20T15:12:31;4.00;99.90
34147;DHT22;20423;49.448;9.056;2022-11-20T15:14:58;3.90;99.90
34147;DHT22;20423;49.448;9.056;2022-11-20T15:17:24;3.80;99.90
34147;DHT22;20423;49.448;9.056;2022-11-20T15:19:49;3.70;99.90
34147;DHT22;20423;49.448;9.056;2022-11-20T15:25:34;3.50;99.90
34147;DHT22;20423;49.448;9.056;2022-11-20T15:27:59;3.40;99.90
34147;DHT22;20423;49.448;9.056;2022-11-20T15:30:50;3.40;99.90
34147;DHT22;20423;49.448;9.056;2022-11-20T15:33:17;3.30;99.90
34147;DHT22;20423;49.448;9.056;2022-11-20T15:35:46;3.30;99.90
34147;DHT22;20423;49.448;9.056;2022-11-20T15:38:11;3.30;99.90
34147;DHT22;20423;49.448;9.056;2022-11-20T15:40:37;3.40;99.90
34147;DHT22;20423;49.448;9.056;2022-11-20T15:43:03;3.40;99.90
34147;DHT22;20423;49.448;9.056;2022-11-20T15:45:50;3.40;99.90
34147;DHT22;20423;49.448;9.056;2022-11-20T15:48:31;3.40;99.90
34147;DHT22;20423;49.448;9.056;2022-11-20T15:51:06;3.40;99.90
34147;DHT22;20423;49.448;9.056;2022-11-20T15:53:42;3.40;99.90
34147;DHT22;20423;49.448;9.056;2022-11-20T15:56:14;3.40;99.90
34147;DHT22;20423;49.448;9.056;2022-11-20T15:58:41;3.50;99.90
34147;DHT22;20423;49.448;9.056;2022-11-20T16:01:15;3.50;99.90
34147;DHT22;20423;49.448;9.056;2022-11-20T16:03:41;3.40;99.90
34147;DHT22;20423;49.448;9.056;2022-11-20T16:06:07;3.50;99.90
34147;DHT22;20423;49.448;9.056;2022-11-20T16:08:33;3.50;99.90
34147;DHT22;20423;49.448;9.056;2022-11-20T16:10:58;3.40;99.90
34147;DHT22;20423;49.448;9.056;2022-11-20T16:13:24;3.40;99.90
34147;DHT22;20423;49.448;9.056;2022-11-20T16:16:27;3.50;99.90
34147;DHT22;20423;49.448;9.056;2022-11-20T16:18:54;3.50;99.90
34147;DHT22;20423;49.448;9.056;2022-11-20T16:21:20;3.40;99.90
34147;DHT22;20423;49.448;9.056;2022-11-20T16:23:45;3.50;99.90
34147;DHT22;20423;49.448;9.056;2022-11-20T16:26:12;3.60;99.90
34147;DHT22;20423;49.448;9.056;2022-11-20T16:28:38;3.60;99.90
34147;DHT22;20423;49.448;9.056;2022-11-20T16:31:18;3.60;99.90
34147;DHT22;20423;49.448;9.056;2022-11-20T16:33:52;3.60;99.90
34147;DHT22;20423;49.448;9.056;2022-11-20T16:36:19;3.70;99.90
34147;DHT22;20423;49.448;9.056;2022-11-20T16:38:45;3.80;99.90
34147;DHT22;20423;49.448;9.056;2022-11-20T16:41:11;3.80;99.90
34147;DHT22;20423;49.448;9.056;2022-11-20T16:43:45;3.80;99.90
34147;DHT22;20423;49.448;9.056;2022-11-20T16:46:12;3.80;99.90
34147;DHT22;20423;49.448;9.056;2022-11-20T16:48:38;3.90;99.90
34147;DHT22;20423;49.448;9.056;2022-11-20T16:51:08;3.80;99.90
34147;DHT22;20423;49.448;9.056;2022-11-20T16:53:34;3.90;99.90
34147;DHT22;20423;49.448;9.056;2022-11-20T16:56:14;3.90;99.90
34147;DHT22;20423;49.448;9.056;2022-11-20T16:58:47;3.90;99.90
34147;DHT22;20423;49.448;9.056;2022-11-20T17:01:18;3.80;99.90
34147;DHT22;20423;49.448;9.056;2022-11-20T17:03:52;3.80;99.90
34147;DHT22;20423;49.448;9.056;2022-11-20T17:06:20;3.80;99.90
34147;DHT22;20423;49.448;9.056;2022-11-20T17:08:56;3.80;99.90
34147;DHT22;20423;49.448;9.056;2022-11-20T17:11:22;3.70;99.90
34147;DHT22;20423;49.448;9.056;2022-11-20T17:13:49;3.80;99.90
34147;DHT22;20423;49.448;9.056;2022-11-20T17:16:17;3.80;99.90
34147;DHT22;20423;49.448;9.056;2022-11-20T17:18:43;3.80;99.90
34147;DHT22;20423;49.448;9.056;2022-11-20T17:21:10;3.80;99.90
34147;DHT22;20423;49.448;9.056;2022-11-20T17:23:38;3.80;99.90
34147;DHT22;20423;49.448;9.056;2022-11-20T17:26:30;3.80;99.90
34147;DHT22;20423;49.448;9.056;2022-11-20T17:29:07;3.80;99.90
34147;DHT22;20423;49.448;9.056;2022-11-20T17:31:34;3.80;99.90
34147;DHT22;20423;49.448;9.056;2022-11-20T17:34:03;3.90;99.90
34147;DHT22;20423;49.448;9.056;2022-11-20T17:36:30;3.90;99.90
34147;DHT22;20423;49.448;9.056;2022-11-20T17:38:56;3.90;99.90
34147;DHT22;20423;49.448;9.056;2022-11-20T17:41:24;3.90;99.90
34147;DHT22;20423;49.448;9.056;2022-11-20T17:43:53;3.90;99.90
34147;DHT22;20423;49.448;9.056;2022-11-20T17:46:22;3.80;99.90
34147;DHT22;20423;49.448;9.056;2022-11-20T17:48:48;3.80;99.90
34147;DHT22;20423;49.448;9.056;2022-11-20T17:51:20;3.80;99.90
34147;DHT22;20423;49.448;9.056;2022-11-20T17:53:52;3.80;99.90
34147;DHT22;20423;49.448;9.056;2022-11-20T17:56:36;3.80;99.90
34147;DHT22;20423;49.448;9.056;2022-11-20T18:03:08;3.70;99.90